Pic — WDB2355 — position and weather

sailwx.info

Track history (hours):
 
Tides and Currents Weather Stations Pressure Air Temp Water Temp Dewpoint Dewpoint Depression Visibility Wind Speed Wind Dir Waves Ship Positions

Pic

Owner: MARTIN OPERATING PARTNERSHIP LP, La Porte, TX. More information available from US FCC via Universal Licensing System and Coast Guard Vessel Documentation Center.

Last reported at 2017-Dec-08 20:57 UTC. Time now 2017-Dec-13 01:49 UTC.
Position N 29°30' W 094°52'.

Length 14 m; draft 2.8 m.

Type: Towing. MMSI: 366875020.

Date/timePositionNaut miles runAvg speedWind from/ knotsBaromVisibWave heightAir tempDewpointWater temp
2017-Dec-08 20:57N 29°30' W 094°52'3 6.9
2017-Dec-08 20:30N 29°32' W 094°54'3 6.6
2017-Dec-08 20:00N 29°35' W 094°56'3 6.4
2017-Dec-08 19:30N 29°38' W 094°58'3 6.9
2017-Dec-08 19:00N 29°41' W 094°59'3 6.2
2017-Dec-08 18:30N 29°44' W 095°01'1 2.3
2017-Dec-08 17:53N 29°44' W 095°03'3 6.6
2017-Dec-08 17:27N 29°46' W 095°05'0 0.0
2017-Dec-08 11:51N 29°46' W 095°05'2 1.0
2017-Dec-08 09:44N 29°44' W 095°07'0 0.0
2017-Dec-08 09:29N 29°44' W 095°07'0 0.0
2017-Dec-08 08:45N 29°44' W 095°07'0 0.0
2017-Dec-08 08:22N 29°44' W 095°07'0 0.0
2017-Dec-08 05:01N 29°44' W 095°07'0 0.0
2017-Dec-08 04:51N 29°44' W 095°07'0 0.0
2017-Dec-08 03:55N 29°44' W 095°07'0 0.0
2017-Dec-08 01:38N 29°44' W 095°07'0 0.0
2017-Dec-08 01:30N 29°44' W 095°07'0 0.0
2017-Dec-08 00:54N 29°44' W 095°07'0 0.0
2017-Dec-08 00:29N 29°44' W 095°07'0 0.0
2017-Dec-07 23:58N 29°44' W 095°07'0 0.0
2017-Dec-07 23:22N 29°44' W 095°07'0 0.0
2017-Dec-07 23:00N 29°44' W 095°07'0 0.0
2017-Dec-07 22:30N 29°44' W 095°07'0 0.0
2017-Dec-07 21:41N 29°44' W 095°07'0 0.0
2017-Dec-07 21:25N 29°44' W 095°07'0 0.0
2017-Dec-07 20:59N 29°44' W 095°07'2 2.9
2017-Dec-07 20:16N 29°46' W 095°05'0 0.0
2017-Dec-07 03:28N 29°46' W 095°05'3 5.4
2017-Dec-07 02:57N 29°44' W 095°08'2 3.4
2017-Dec-07 02:27N 29°45' W 095°10'0 0.0
2017-Dec-07 02:00N 29°45' W 095°10'0 0.0
2017-Dec-07 01:26N 29°45' W 095°10'0 0.0
2017-Dec-07 00:48N 29°45' W 095°10'0 0.0
2017-Dec-06 23:55N 29°45' W 095°10'1 2.9
2017-Dec-06 23:30N 29°44' W 095°08'1 1.4
2017-Dec-06 22:30N 29°44' W 095°07'  
2017-Dec-03 11:42N 29°19' W 094°47'0 0.0
2017-Dec-03 08:19N 29°19' W 094°47'0 0.2
2017-Dec-03 07:50N 29°19' W 094°47'0 0.0
2017-Dec-03 07:28N 29°19' W 094°47'0 0.0
2017-Dec-03 06:56N 29°19' W 094°47'0 0.0
2017-Dec-03 06:26N 29°19' W 094°47'0 0.0
2017-Dec-03 06:00N 29°19' W 094°47'0 0.0
2017-Dec-03 05:30N 29°19' W 094°47'0 0.0
2017-Dec-03 04:54N 29°19' W 094°47'0 0.0
2017-Dec-03 04:30N 29°19' W 094°47'0 0.0
2017-Dec-03 04:00N 29°19' W 094°47'0 0.0
2017-Dec-03 03:30N 29°19' W 094°47'0 0.0
2017-Dec-03 03:00N 29°19' W 094°47'0 0.0
2017-Dec-03 02:31N 29°19' W 094°47'0 0.0
2017-Dec-03 01:59N 29°19' W 094°47'12 1.5
2017-Dec-02 17:49N 29°30' W 094°52'2 7.0
2017-Dec-02 17:30N 29°32' W 094°54'3 6.8
2017-Dec-02 17:00N 29°35' W 094°56'3 6.8
2017-Dec-02 16:30N 29°38' W 094°58'4 7.2
2017-Dec-02 16:00N 29°41' W 094°59'3 6.2
2017-Dec-02 15:28N 29°44' W 095°02'4 6.7
2017-Dec-02 14:54N 29°46' W 095°05'1 1.9
2017-Dec-02 14:30N 29°46' W 095°06'0 0.0
2017-Dec-02 13:58N 29°46' W 095°06'0 0.0
2017-Dec-02 07:57N 29°46' W 095°06'2 3.4
2017-Dec-02 07:30N 29°45' W 095°06'2 3.0
2017-Dec-02 06:59N 29°44' W 095°08'0 0.0
2017-Dec-02 06:26N 29°44' W 095°08'0 0.0
2017-Dec-02 06:00N 29°44' W 095°08'0 0.0
2017-Dec-02 05:30N 29°44' W 095°08'0 0.0
2017-Dec-02 05:00N 29°44' W 095°08'0 0.0
2017-Dec-02 04:25N 29°44' W 095°08'0 0.0
2017-Dec-02 03:37N 29°44' W 095°08'0 0.0
2017-Dec-02 03:10N 29°44' W 095°08'0 0.0
2017-Dec-02 02:54N 29°44' W 095°08'0 0.0
2017-Dec-02 01:58N 29°44' W 095°08'0 0.0
2017-Dec-02 01:28N 29°44' W 095°08'0 0.0
2017-Dec-02 00:34N 29°44' W 095°08'0 0.0
2017-Dec-02 00:25N 29°44' W 095°08'1 3.1
2017-Dec-01 23:59N 29°45' W 095°06'1 0.1
2017-Dec-01 11:11N 29°46' W 095°05'1 5.6
2017-Dec-01 10:55N 29°45' W 095°04'3 5.6
2017-Dec-01 10:27N 29°44' W 095°02'2 5.2
2017-Dec-01 10:00N 29°42' W 094°60'3 6.0
2017-Dec-01 09:27N 29°39' W 094°58'3 6.2
2017-Dec-01 09:00N 29°36' W 094°57'3 6.2
2017-Dec-01 08:30N 29°34' W 094°55'3 6.0
2017-Dec-01 07:59N 29°31' W 094°53'8 1.4
2017-Dec-01 01:59N 29°23' W 094°52'3 6.6
2017-Dec-01 01:30N 29°22' W 094°49'9 0.2
2017-Nov-29 07:53N 29°30' W 094°52'3 6.8
2017-Nov-29 07:30N 29°32' W 094°54'3 6.9
2017-Nov-29 07:00N 29°35' W 094°56'3 6.8
2017-Nov-29 06:30N 29°38' W 094°58'3 6.9
2017-Nov-29 06:00N 29°41' W 094°59'3 6.0
2017-Nov-29 05:30N 29°43' W 095°01'3 5.6
2017-Nov-29 04:59N 29°45' W 095°04'  
Track history (hours):
 
Tides and Currents Weather Stations Pressure Air Temp Water Temp Dewpoint Dewpoint Depression Visibility Wind Speed Wind Dir Waves Ship Positions

Pic

Owner: MARTIN OPERATING PARTNERSHIP LP, La Porte, TX. More information available from US FCC via Universal Licensing System and Coast Guard Vessel Documentation Center.

Last reported at 2017-Dec-08 20:57 UTC. Time now 2017-Dec-13 01:49 UTC.
Position N 29°30' W 094°52'.

Length 14 m; draft 2.8 m.

Type: Towing. MMSI: 366875020.

Date/timePositionNaut miles runAvg speedWind from/ knotsBaromVisibWave heightAir tempDewpointWater temp
2017-Dec-08 20:57N 29°30' W 094°52'3 6.9
2017-Dec-08 20:30N 29°32' W 094°54'3 6.6
2017-Dec-08 20:00N 29°35' W 094°56'3 6.4
2017-Dec-08 19:30N 29°38' W 094°58'3 6.9
2017-Dec-08 19:00N 29°41' W 094°59'3 6.2
2017-Dec-08 18:30N 29°44' W 095°01'1 2.3
2017-Dec-08 17:53N 29°44' W 095°03'3 6.6
2017-Dec-08 17:27N 29°46' W 095°05'0 0.0
2017-Dec-08 11:51N 29°46' W 095°05'2 1.0
2017-Dec-08 09:44N 29°44' W 095°07'0 0.0
2017-Dec-08 09:29N 29°44' W 095°07'0 0.0
2017-Dec-08 08:45N 29°44' W 095°07'0 0.0
2017-Dec-08 08:22N 29°44' W 095°07'0 0.0
2017-Dec-08 05:01N 29°44' W 095°07'0 0.0
2017-Dec-08 04:51N 29°44' W 095°07'0 0.0
2017-Dec-08 03:55N 29°44' W 095°07'0 0.0
2017-Dec-08 01:38N 29°44' W 095°07'0 0.0
2017-Dec-08 01:30N 29°44' W 095°07'0 0.0
2017-Dec-08 00:54N 29°44' W 095°07'0 0.0
2017-Dec-08 00:29N 29°44' W 095°07'0 0.0
2017-Dec-07 23:58N 29°44' W 095°07'0 0.0
2017-Dec-07 23:22N 29°44' W 095°07'0 0.0
2017-Dec-07 23:00N 29°44' W 095°07'0 0.0
2017-Dec-07 22:30N 29°44' W 095°07'0 0.0
2017-Dec-07 21:41N 29°44' W 095°07'0 0.0
2017-Dec-07 21:25N 29°44' W 095°07'0 0.0
2017-Dec-07 20:59N 29°44' W 095°07'2 2.9
2017-Dec-07 20:16N 29°46' W 095°05'0 0.0
2017-Dec-07 03:28N 29°46' W 095°05'3 5.4
2017-Dec-07 02:57N 29°44' W 095°08'2 3.4
2017-Dec-07 02:27N 29°45' W 095°10'0 0.0
2017-Dec-07 02:00N 29°45' W 095°10'0 0.0
2017-Dec-07 01:26N 29°45' W 095°10'0 0.0
2017-Dec-07 00:48N 29°45' W 095°10'0 0.0
2017-Dec-06 23:55N 29°45' W 095°10'1 2.9
2017-Dec-06 23:30N 29°44' W 095°08'1 1.4
2017-Dec-06 22:30N 29°44' W 095°07'  
2017-Dec-03 11:42N 29°19' W 094°47'0 0.0
2017-Dec-03 08:19N 29°19' W 094°47'0 0.2
2017-Dec-03 07:50N 29°19' W 094°47'0 0.0
2017-Dec-03 07:28N 29°19' W 094°47'0 0.0
2017-Dec-03 06:56N 29°19' W 094°47'0 0.0
2017-Dec-03 06:26N 29°19' W 094°47'0 0.0
2017-Dec-03 06:00N 29°19' W 094°47'0 0.0
2017-Dec-03 05:30N 29°19' W 094°47'0 0.0
2017-Dec-03 04:54N 29°19' W 094°47'0 0.0
2017-Dec-03 04:30N 29°19' W 094°47'0 0.0
2017-Dec-03 04:00N 29°19' W 094°47'0 0.0
2017-Dec-03 03:30N 29°19' W 094°47'0 0.0
2017-Dec-03 03:00N 29°19' W 094°47'0 0.0
2017-Dec-03 02:31N 29°19' W 094°47'0 0.0
2017-Dec-03 01:59N 29°19' W 094°47'12 1.5
2017-Dec-02 17:49N 29°30' W 094°52'2 7.0
2017-Dec-02 17:30N 29°32' W 094°54'3 6.8
2017-Dec-02 17:00N 29°35' W 094°56'3 6.8
2017-Dec-02 16:30N 29°38' W 094°58'4 7.2
2017-Dec-02 16:00N 29°41' W 094°59'3 6.2
2017-Dec-02 15:28N 29°44' W 095°02'4 6.7
2017-Dec-02 14:54N 29°46' W 095°05'1 1.9
2017-Dec-02 14:30N 29°46' W 095°06'0 0.0
2017-Dec-02 13:58N 29°46' W 095°06'0 0.0
2017-Dec-02 07:57N 29°46' W 095°06'2 3.4
2017-Dec-02 07:30N 29°45' W 095°06'2 3.0
2017-Dec-02 06:59N 29°44' W 095°08'0 0.0
2017-Dec-02 06:26N 29°44' W 095°08'0 0.0
2017-Dec-02 06:00N 29°44' W 095°08'0 0.0
2017-Dec-02 05:30N 29°44' W 095°08'0 0.0
2017-Dec-02 05:00N 29°44' W 095°08'0 0.0
2017-Dec-02 04:25N 29°44' W 095°08'0 0.0
2017-Dec-02 03:37N 29°44' W 095°08'0 0.0
2017-Dec-02 03:10N 29°44' W 095°08'0 0.0
2017-Dec-02 02:54N 29°44' W 095°08'0 0.0
2017-Dec-02 01:58N 29°44' W 095°08'0 0.0
2017-Dec-02 01:28N 29°44' W 095°08'0 0.0
2017-Dec-02 00:34N 29°44' W 095°08'0 0.0
2017-Dec-02 00:25N 29°44' W 095°08'1 3.1
2017-Dec-01 23:59N 29°45' W 095°06'1 0.1
2017-Dec-01 11:11N 29°46' W 095°05'1 5.6
2017-Dec-01 10:55N 29°45' W 095°04'3 5.6
2017-Dec-01 10:27N 29°44' W 095°02'2 5.2
2017-Dec-01 10:00N 29°42' W 094°60'3 6.0
2017-Dec-01 09:27N 29°39' W 094°58'3 6.2
2017-Dec-01 09:00N 29°36' W 094°57'3 6.2
2017-Dec-01 08:30N 29°34' W 094°55'3 6.0
2017-Dec-01 07:59N 29°31' W 094°53'8 1.4
2017-Dec-01 01:59N 29°23' W 094°52'3 6.6
2017-Dec-01 01:30N 29°22' W 094°49'9 0.2
2017-Nov-29 07:53N 29°30' W 094°52'3 6.8
2017-Nov-29 07:30N 29°32' W 094°54'3 6.9
2017-Nov-29 07:00N 29°35' W 094°56'3 6.8
2017-Nov-29 06:30N 29°38' W 094°58'3 6.9
2017-Nov-29 06:00N 29°41' W 094°59'3 6.0
2017-Nov-29 05:30N 29°43' W 095°01'3 5.6
2017-Nov-29 04:59N 29°45' W 095°04'  

Dump ship's entire track history